Time;durP1;ratioP1;P1;durP2;ratioP2;P2;SDS_P1;SDS_P2;PMS_P1;PMS_P2;Temp;Humidity;BMP_temperature;BMP_pressure;BME280_temperature;BME280_humidity;BME280_pressure;Samples;Min_cycle;Max_cycle;Signal;HPM_P1;HPM_P2
2023/10/25 00:01:05;;;;;;;11.80;8.63;;;;;;;;;;4959529;28;20038;-74
2023/10/25 00:03:31;;;;;;;14.77;9.35;;;;;;;;;;4958513;29;20394;-76
2023/10/25 00:05:56;;;;;;;13.38;8.70;;;;;;;;;;4958720;28;20406;-75
2023/10/25 00:08:22;;;;;;;13.00;9.07;;;;;;;;;;4959458;29;20027;-75
2023/10/25 00:10:47;;;;;;;12.88;8.73;;;;;;;;;;4971240;28;20023;-75
2023/10/25 00:13:12;;;;;;;13.52;8.90;;;;;;;;;;4955240;28;20028;-75
2023/10/25 00:15:37;;;;;;;17.05;9.48;;;;;;;;;;4958082;28;20476;-76
2023/10/25 00:18:02;;;;;;;14.00;8.53;;;;;;;;;;4957975;29;20094;-75
2023/10/25 00:20:28;;;;;;;13.00;8.45;;;;;;;;;;4958046;28;20428;-76
2023/10/25 00:22:53;;;;;;;16.48;9.05;;;;;;;;;;4958200;29;20035;-74
2023/10/25 00:25:45;;;;;;;12.95;9.35;;;;;;;;;;4959131;28;20442;-75
2023/10/25 00:28:11;;;;;;;13.50;8.57;;;;;;;;;;4956672;29;20110;-75
2023/10/25 00:30:36;;;;;;;12.60;8.60;;;;;;;;;;4958238;29;20046;-76
2023/10/25 00:33:02;;;;;;;12.48;8.75;;;;;;;;;;4956149;29;20075;-76
2023/10/25 00:35:27;;;;;;;12.82;8.73;;;;;;;;;;4957855;28;20027;-75
2023/10/25 00:37:52;;;;;;;11.80;8.63;;;;;;;;;;4957801;28;20479;-76
2023/10/25 00:40:18;;;;;;;13.50;8.70;;;;;;;;;;4957874;29;20027;-74
2023/10/25 00:42:43;;;;;;;13.30;9.13;;;;;;;;;;4956815;29;20051;-75
2023/10/25 00:45:08;;;;;;;11.82;8.65;;;;;;;;;;4957771;28;20031;-75
2023/10/25 00:47:34;;;;;;;13.23;8.30;;;;;;;;;;4957557;29;20039;-75
2023/10/25 00:49:59;;;;;;;12.95;8.40;;;;;;;;;;4957045;29;20019;-75
2023/10/25 00:52:24;;;;;;;13.55;8.48;;;;;;;;;;4956748;29;20027;-76
2023/10/25 00:54:51;;;;;;;12.38;8.52;;;;;;;;;;4956140;28;20114;-75
2023/10/25 00:57:16;;;;;;;12.85;8.48;;;;;;;;;;4957311;29;20106;-75
2023/10/25 00:59:42;;;;;;;13.80;9.10;;;;;;;;;;4956833;28;20066;-75
2023/10/25 01:02:07;;;;;;;13.38;9.32;;;;;;;;;;4956153;28;20039;-74
2023/10/25 01:04:33;;;;;;;13.13;8.73;;;;;;;;;;4956644;28;20037;-74
2023/10/25 01:06:58;;;;;;;14.02;8.52;;;;;;;;;;4957062;29;20035;-74
2023/10/25 01:09:24;;;;;;;14.70;8.80;;;;;;;;;;4957297;29;20471;-75
2023/10/25 01:11:49;;;;;;;12.82;8.57;;;;;;;;;;4957282;28;20030;-75
2023/10/25 01:14:14;;;;;;;12.55;8.73;;;;;;;;;;4956246;28;20027;-74
2023/10/25 01:16:39;;;;;;;14.07;8.98;;;;;;;;;;4955285;28;20034;-75
2023/10/25 01:19:05;;;;;;;12.60;8.83;;;;;;;;;;4957373;29;20475;-74
2023/10/25 01:21:31;;;;;;;13.50;8.17;;;;;;;;;;4956975;28;20735;-77
2023/10/25 01:23:56;;;;;;;13.98;8.63;;;;;;;;;;4955699;29;20633;-75
2023/10/25 01:26:21;;;;;;;11.82;8.63;;;;;;;;;;4956986;28;20486;-76
2023/10/25 01:28:47;;;;;;;13.38;8.45;;;;;;;;;;4955478;28;20050;-76
2023/10/25 01:31:12;;;;;;;11.30;8.32;;;;;;;;;;4957764;28;20078;-75
2023/10/25 01:33:37;;;;;;;11.30;8.17;;;;;;;;;;4957624;29;20035;-75
2023/10/25 01:36:03;;;;;;;14.82;8.70;;;;;;;;;;4957229;28;20284;-75
2023/10/25 01:38:28;;;;;;;14.75;8.55;;;;;;;;;;4957125;29;20151;-75
2023/10/25 01:40:53;;;;;;;11.68;8.23;;;;;;;;;;4957557;29;20117;-75
2023/10/25 01:43:18;;;;;;;15.70;8.43;;;;;;;;;;4957602;29;20042;-75
2023/10/25 01:45:44;;;;;;;16.05;8.35;;;;;;;;;;4957166;28;20633;-76
2023/10/25 01:48:09;;;;;;;13.05;8.98;;;;;;;;;;4957018;29;20042;-75
2023/10/25 01:50:34;;;;;;;12.48;7.50;;;;;;;;;;4955564;28;20023;-74
2023/10/25 01:52:59;;;;;;;11.95;8.23;;;;;;;;;;4957725;29;20023;-75
2023/10/25 01:55:25;;;;;;;9.95;7.25;;;;;;;;;;4957161;28;20038;-76
2023/10/25 01:57:51;;;;;;;14.32;7.25;;;;;;;;;;4955681;28;20027;-75
2023/10/25 02:00:17;;;;;;;12.30;7.25;;;;;;;;;;4957159;29;20034;-75
2023/10/25 02:02:42;;;;;;;10.93;7.43;;;;;;;;;;4957892;28;20028;-75
2023/10/25 02:05:08;;;;;;;12.75;7.20;;;;;;;;;;4956620;28;20035;-75
2023/10/25 02:07:34;;;;;;;13.55;6.60;;;;;;;;;;4957945;28;20498;-75
2023/10/25 02:09:59;;;;;;;10.40;6.72;;;;;;;;;;4957255;29;20023;-75
2023/10/25 02:12:24;;;;;;;9.87;7.00;;;;;;;;;;4960202;28;20121;-75
2023/10/25 02:14:49;;;;;;;10.15;7.38;;;;;;;;;;4961918;28;20265;-75
2023/10/25 02:17:15;;;;;;;10.17;6.90;;;;;;;;;;4962108;29;20037;-75
2023/10/25 02:19:40;;;;;;;8.95;6.20;;;;;;;;;;4960271;29;20328;-75
2023/10/25 02:22:05;;;;;;;9.00;6.10;;;;;;;;;;4962126;29;20027;-75
2023/10/25 02:24:31;;;;;;;8.85;5.72;;;;;;;;;;4961513;28;20083;-75
2023/10/25 02:26:56;;;;;;;14.48;6.03;;;;;;;;;;4962102;29;20039;-75
2023/10/25 02:29:22;;;;;;;9.38;6.03;;;;;;;;;;4962194;29;20047;-75
2023/10/25 02:31:47;;;;;;;9.95;5.57;;;;;;;;;;4962341;28;20440;-75
2023/10/25 02:34:12;;;;;;;7.47;5.35;;;;;;;;;;4960036;29;20055;-75
2023/10/25 02:36:37;;;;;;;7.90;5.57;;;;;;;;;;4960274;28;20019;-75
2023/10/25 02:39:03;;;;;;;12.02;6.00;;;;;;;;;;4961109;29;20114;-75
2023/10/25 02:41:28;;;;;;;9.43;6.07;;;;;;;;;;4961941;29;20479;-75
2023/10/25 02:43:54;;;;;;;10.52;5.90;;;;;;;;;;4960288;28;20094;-75
2023/10/25 02:46:20;;;;;;;8.40;5.75;;;;;;;;;;4958949;28;20031;-75
2023/10/25 02:48:45;;;;;;;9.23;5.45;;;;;;;;;;4961748;29;20027;-75
2023/10/25 02:51:11;;;;;;;7.43;5.93;;;;;;;;;;4961359;28;20027;-75
2023/10/25 02:53:36;;;;;;;10.05;6.15;;;;;;;;;;4959720;28;20406;-75
2023/10/25 02:56:03;;;;;;;10.82;5.90;;;;;;;;;;4959381;28;20086;-75
2023/10/25 02:58:29;;;;;;;10.02;5.88;;;;;;;;;;4960981;28;20031;-75
2023/10/25 03:00:56;;;;;;;8.38;6.40;;;;;;;;;;4961326;28;20116;-75
2023/10/25 03:03:21;;;;;;;10.45;6.88;;;;;;;;;;4961685;28;20059;-75
2023/10/25 03:05:47;;;;;;;9.15;6.38;;;;;;;;;;4960409;28;20390;-75
2023/10/25 03:08:12;;;;;;;12.02;6.68;;;;;;;;;;4959609;29;20059;-75
2023/10/25 03:10:37;;;;;;;8.88;6.03;;;;;;;;;;4958707;29;20082;-75
2023/10/25 03:13:02;;;;;;;8.80;5.80;;;;;;;;;;4959417;29;20039;-75
2023/10/25 03:15:28;;;;;;;9.05;6.68;;;;;;;;;;4960060;28;20265;-75
2023/10/25 03:17:54;;;;;;;11.35;6.90;;;;;;;;;;4960499;29;20065;-75
2023/10/25 03:20:19;;;;;;;11.65;7.13;;;;;;;;;;4959316;29;20030;-75
2023/10/25 03:22:45;;;;;;;8.70;6.43;;;;;;;;;;4959110;28;20058;-75
2023/10/25 03:25:10;;;;;;;9.57;6.80;;;;;;;;;;4959664;28;20062;-75
2023/10/25 03:27:35;;;;;;;11.68;6.88;;;;;;;;;;4960942;29;20035;-75
2023/10/25 03:30:01;;;;;;;9.52;6.70;;;;;;;;;;4960863;29;20030;-75
2023/10/25 03:32:26;;;;;;;8.65;6.78;;;;;;;;;;4960442;29;20019;-75
2023/10/25 03:34:52;;;;;;;11.13;6.72;;;;;;;;;;4960632;28;20397;-75
2023/10/25 03:37:17;;;;;;;10.90;6.65;;;;;;;;;;4960774;29;20037;-75
2023/10/25 03:39:42;;;;;;;10.02;7.00;;;;;;;;;;4960193;29;20045;-75
2023/10/25 03:42:07;;;;;;;10.38;6.80;;;;;;;;;;4958971;29;20042;-76
2023/10/25 03:44:33;;;;;;;11.95;6.55;;;;;;;;;;4959770;28;20459;-75
2023/10/25 03:46:58;;;;;;;9.23;6.47;;;;;;;;;;4959511;28;20090;-76
2023/10/25 03:49:24;;;;;;;11.45;6.65;;;;;;;;;;4960637;29;20324;-75
2023/10/25 03:51:50;;;;;;;8.13;6.60;;;;;;;;;;4960755;28;20471;-75
2023/10/25 03:54:15;;;;;;;10.25;6.85;;;;;;;;;;4959791;29;20094;-75
2023/10/25 03:56:42;;;;;;;9.30;6.95;;;;;;;;;;4959845;28;20046;-75
2023/10/25 03:59:07;;;;;;;10.23;6.35;;;;;;;;;;4958336;29;20028;-75
2023/10/25 04:01:32;;;;;;;10.52;6.22;;;;;;;;;;4958175;29;20498;-75
2023/10/25 04:03:58;;;;;;;10.23;6.20;;;;;;;;;;4958957;28;20034;-76
2023/10/25 04:06:23;;;;;;;9.55;6.65;;;;;;;;;;4959455;28;20031;-75
2023/10/25 04:08:48;;;;;;;8.20;6.60;;;;;;;;;;4959717;29;20498;-76
2023/10/25 04:11:13;;;;;;;8.07;5.80;;;;;;;;;;4959680;29;20035;-75
2023/10/25 04:13:39;;;;;;;10.50;7.20;;;;;;;;;;4959333;28;20027;-75
2023/10/25 04:16:05;;;;;;;9.07;7.15;;;;;;;;;;4959135;28;20035;-75
2023/10/25 04:18:32;;;;;;;9.88;6.47;;;;;;;;;;4959094;29;20023;-75
2023/10/25 04:20:59;;;;;;;7.57;6.65;;;;;;;;;;4959614;29;20114;-75
2023/10/25 04:23:26;;;;;;;10.35;7.55;;;;;;;;;;4959112;28;20042;-75
2023/10/25 04:25:51;;;;;;;16.13;6.85;;;;;;;;;;4957835;28;20077;-75
2023/10/25 04:28:18;;;;;;;10.50;7.47;;;;;;;;;;4958292;28;20103;-75
2023/10/25 04:30:43;;;;;;;11.60;6.93;;;;;;;;;;4959379;29;20026;-75
2023/10/25 04:33:09;;;;;;;9.85;7.25;;;;;;;;;;4957100;28;20027;-75
2023/10/25 04:35:34;;;;;;;8.85;7.43;;;;;;;;;;4956113;28;20027;-75
2023/10/25 04:38:00;;;;;;;8.75;6.88;;;;;;;;;;4958647;29;20027;-75
2023/10/25 04:40:26;;;;;;;13.38;7.40;;;;;;;;;;4957572;28;20027;-75
2023/10/25 04:42:53;;;;;;;9.65;6.68;;;;;;;;;;4957866;29;20023;-75
2023/10/25 04:45:19;;;;;;;13.82;7.28;;;;;;;;;;4956393;28;20019;-75
2023/10/25 04:47:45;;;;;;;10.30;7.10;;;;;;;;;;4956500;29;20034;-75
2023/10/25 04:50:10;;;;;;;10.57;7.53;;;;;;;;;;4957042;29;20015;-75
2023/10/25 04:52:35;;;;;;;11.05;8.18;;;;;;;;;;4955457;28;20081;-75
2023/10/25 04:55:01;;;;;;;11.80;7.50;;;;;;;;;;4957278;28;20042;-75
2023/10/25 04:57:26;;;;;;;11.52;7.30;;;;;;;;;;4956881;29;20472;-75
2023/10/25 04:59:52;;;;;;;10.13;7.32;;;;;;;;;;4956922;29;20372;-75
2023/10/25 05:02:17;;;;;;;11.30;7.68;;;;;;;;;;4957365;29;20027;-75
2023/10/25 05:04:43;;;;;;;11.88;7.63;;;;;;;;;;4958105;28;20106;-75
2023/10/25 05:07:09;;;;;;;11.90;8.18;;;;;;;;;;4956911;29;20027;-75
2023/10/25 05:09:35;;;;;;;12.38;7.93;;;;;;;;;;4957567;28;20394;-75
2023/10/25 05:12:04;;;;;;;10.88;7.07;;;;;;;;;;4957546;28;20053;-75
2023/10/25 05:14:30;;;;;;;16.02;7.80;;;;;;;;;;4957804;28;20125;-75
2023/10/25 05:16:55;;;;;;;9.05;7.78;;;;;;;;;;4957192;28;20406;-75
2023/10/25 05:19:21;;;;;;;11.07;7.25;;;;;;;;;;4957422;29;20027;-76
2023/10/25 05:21:50;;;;;;;9.63;6.82;;;;;;;;;;4957434;28;20071;-76
2023/10/25 05:24:16;;;;;;;9.95;7.07;;;;;;;;;;4956340;28;20496;-75
2023/10/25 05:26:42;;;;;;;9.35;7.07;;;;;;;;;;4956996;28;20043;-76
2023/10/25 05:29:07;;;;;;;11.70;7.65;;;;;;;;;;4956923;29;20023;-75
2023/10/25 05:31:34;;;;;;;11.20;7.95;;;;;;;;;;4957549;28;20483;-75
2023/10/25 05:34:00;;;;;;;10.80;7.10;;;;;;;;;;4958457;29;20030;-75
2023/10/25 05:36:26;;;;;;;9.63;7.38;;;;;;;;;;4958027;28;20027;-75
2023/10/25 05:38:51;;;;;;;9.80;7.30;;;;;;;;;;4957177;29;20027;-74
2023/10/25 05:41:22;;;;;;;10.43;7.60;;;;;;;;;;4955995;28;20042;-74
2023/10/25 05:44:00;;;;;;;15.23;7.20;;;;;;;;;;4957440;29;20041;-75
2023/10/25 05:46:25;;;;;;;13.73;7.40;;;;;;;;;;4957298;28;20027;-75
2023/10/25 05:48:51;;;;;;;11.25;7.60;;;;;;;;;;4957199;29;20030;-75
2023/10/25 05:51:16;;;;;;;10.43;7.95;;;;;;;;;;4957571;29;20038;-75
2023/10/25 05:53:42;;;;;;;11.23;7.25;;;;;;;;;;4957944;29;20090;-75
2023/10/25 05:56:07;;;;;;;9.88;7.25;;;;;;;;;;4957465;28;20028;-76
2023/10/25 05:58:39;;;;;;;10.68;7.15;;;;;;;;;;4957445;28;20023;-76
2023/10/25 06:01:08;;;;;;;11.00;8.05;;;;;;;;;;4957520;28;20498;-75
2023/10/25 06:03:34;;;;;;;10.80;7.10;;;;;;;;;;4957783;28;20043;-75
2023/10/25 06:06:00;;;;;;;9.20;7.28;;;;;;;;;;4956673;28;20098;-75
2023/10/25 06:08:26;;;;;;;9.55;7.53;;;;;;;;;;4956968;28;20087;-75
2023/10/25 06:10:51;;;;;;;11.15;7.93;;;;;;;;;;4958802;29;20069;-75
2023/10/25 06:13:17;;;;;;;10.60;7.65;;;;;;;;;;4958060;28;20024;-75
2023/10/25 06:15:43;;;;;;;10.30;7.68;;;;;;;;;;4956622;28;20095;-75
2023/10/25 06:18:10;;;;;;;10.98;7.70;;;;;;;;;;4958580;29;20422;-75
2023/10/25 06:20:35;;;;;;;10.88;7.55;;;;;;;;;;4956747;29;20023;-76
2023/10/25 06:23:00;;;;;;;13.20;7.65;;;;;;;;;;4958544;29;20027;-75
2023/10/25 06:25:27;;;;;;;11.15;7.38;;;;;;;;;;4956299;28;20085;-75
2023/10/25 06:27:52;;;;;;;8.93;7.10;;;;;;;;;;4956387;29;20031;-75
2023/10/25 06:30:18;;;;;;;10.52;7.32;;;;;;;;;;4957995;29;20114;-75
2023/10/25 06:32:43;;;;;;;10.38;7.43;;;;;;;;;;4957589;28;20080;-75
2023/10/25 06:35:08;;;;;;;9.88;7.30;;;;;;;;;;4956992;28;20055;-75
2023/10/25 06:37:34;;;;;;;9.55;7.57;;;;;;;;;;4957244;29;20034;-76
2023/10/25 06:39:59;;;;;;;10.80;7.03;;;;;;;;;;4957075;28;20031;-75
2023/10/25 06:42:25;;;;;;;9.10;6.78;;;;;;;;;;4957742;29;20549;-75
2023/10/25 06:44:51;;;;;;;11.02;7.70;;;;;;;;;;4955874;28;20027;-76
2023/10/25 06:47:16;;;;;;;13.43;7.60;;;;;;;;;;4956483;28;20028;-75
2023/10/25 06:49:42;;;;;;;8.57;7.25;;;;;;;;;;4956777;29;20044;-75
2023/10/25 06:52:08;;;;;;;8.75;6.57;;;;;;;;;;4956043;29;20023;-75
2023/10/25 06:54:33;;;;;;;9.45;6.50;;;;;;;;;;4956461;28;20038;-75
2023/10/25 06:56:59;;;;;;;8.27;6.63;;;;;;;;;;4956814;28;20401;-75
2023/10/25 06:59:24;;;;;;;9.27;6.65;;;;;;;;;;4959946;28;20106;-75
2023/10/25 07:01:58;;;;;;;8.93;6.60;;;;;;;;;;4959919;28;20032;-75
2023/10/25 07:04:26;;;;;;;9.68;6.55;;;;;;;;;;4960160;29;20023;-75
2023/10/25 07:06:53;;;;;;;9.85;7.53;;;;;;;;;;4960825;28;20094;-75
2023/10/25 07:09:19;;;;;;;9.15;6.63;;;;;;;;;;4961988;29;20370;-76
2023/10/25 07:11:44;;;;;;;8.25;6.10;;;;;;;;;;4961106;29;20027;-76
2023/10/25 07:14:09;;;;;;;9.02;6.15;;;;;;;;;;4960824;29;20483;-75
2023/10/25 07:16:36;;;;;;;8.93;6.32;;;;;;;;;;4960537;28;20077;-75
2023/10/25 07:19:01;;;;;;;7.90;6.60;;;;;;;;;;4959313;29;20034;-76
2023/10/25 07:21:26;;;;;;;8.70;6.18;;;;;;;;;;4961391;29;20027;-75
2023/10/25 07:23:53;;;;;;;12.43;6.40;;;;;;;;;;4961356;28;20033;-76
2023/10/25 07:26:18;;;;;;;10.10;6.90;;;;;;;;;;4961347;28;20038;-76
2023/10/25 07:28:43;;;;;;;8.48;6.65;;;;;;;;;;4961774;29;20027;-76
2023/10/25 07:31:09;;;;;;;12.03;7.17;;;;;;;;;;4961993;29;20066;-76
2023/10/25 07:33:34;;;;;;;11.65;6.53;;;;;;;;;;4961248;29;20265;-75
2023/10/25 07:35:59;;;;;;;10.20;6.70;;;;;;;;;;4960181;28;20051;-76
2023/10/25 07:38:24;;;;;;;8.77;6.80;;;;;;;;;;4961067;29;20253;-76
2023/10/25 07:40:50;;;;;;;9.82;6.82;;;;;;;;;;4960727;28;20138;-75
2023/10/25 07:43:15;;;;;;;9.03;7.20;;;;;;;;;;4961480;29;20031;-76
2023/10/25 07:45:40;;;;;;;9.50;7.18;;;;;;;;;;4960436;28;20388;-76
2023/10/25 07:48:05;;;;;;;11.03;7.23;;;;;;;;;;4961548;29;20027;-76
2023/10/25 07:50:31;;;;;;;12.07;7.40;;;;;;;;;;4960748;29;20257;-76
2023/10/25 07:52:56;;;;;;;10.00;7.00;;;;;;;;;;4961008;29;20118;-76
2023/10/25 07:55:21;;;;;;;8.32;6.40;;;;;;;;;;4960269;28;20059;-76
2023/10/25 07:57:47;;;;;;;10.57;6.70;;;;;;;;;;4961491;29;20027;-76
2023/10/25 08:00:12;;;;;;;10.90;7.47;;;;;;;;;;4958821;29;20038;-76
2023/10/25 08:02:40;;;;;;;8.98;6.88;;;;;;;;;;4961340;29;20027;-76
2023/10/25 08:05:05;;;;;;;8.98;6.40;;;;;;;;;;4960819;28;20030;-76
2023/10/25 08:07:31;;;;;;;11.68;6.80;;;;;;;;;;4958833;29;20028;-76
2023/10/25 08:09:57;;;;;;;11.65;6.90;;;;;;;;;;4960418;28;20019;-76
2023/10/25 08:12:22;;;;;;;7.75;6.38;;;;;;;;;;4961122;29;20031;-76
2023/10/25 08:14:48;;;;;;;11.15;6.43;;;;;;;;;;4960762;28;20513;-76
2023/10/25 08:17:13;;;;;;;7.93;6.20;;;;;;;;;;4959648;29;20035;-76
2023/10/25 08:19:38;;;;;;;10.75;6.05;;;;;;;;;;4960629;28;20023;-76
2023/10/25 08:22:08;;;;;;;8.03;6.53;;;;;;;;;;4960818;29;20062;-76
2023/10/25 08:24:34;;;;;;;8.32;5.97;;;;;;;;;;4961364;28;20266;-76
2023/10/25 08:26:59;;;;;;;9.15;6.03;;;;;;;;;;4960932;29;20027;-76
2023/10/25 08:29:25;;;;;;;10.65;6.60;;;;;;;;;;4959984;29;20494;-76
2023/10/25 08:31:50;;;;;;;7.72;5.68;;;;;;;;;;4959020;29;20023;-76
2023/10/25 08:34:15;;;;;;;7.57;6.05;;;;;;;;;;4958728;28;20027;-76
2023/10/25 08:36:40;;;;;;;7.43;5.70;;;;;;;;;;4959597;28;20105;-76
2023/10/25 08:39:06;;;;;;;7.68;5.85;;;;;;;;;;4958949;29;20285;-76
2023/10/25 08:41:33;;;;;;;10.18;5.63;;;;;;;;;;4967781;29;20054;-78
2023/10/25 08:43:58;;;;;;;6.88;5.35;;;;;;;;;;4968191;29;20042;-79
2023/10/25 08:46:24;;;;;;;6.15;4.05;;;;;;;;;;4962704;28;20031;-83
2023/10/25 08:48:52;;;;;;;7.28;4.72;;;;;;;;;;4959321;28;20027;-80
2023/10/25 08:51:18;;;;;;;6.35;4.60;;;;;;;;;;4959811;29;20019;-79
2023/10/25 08:53:45;;;;;;;5.88;4.30;;;;;;;;;;4962007;29;20393;-78
2023/10/25 08:56:11;;;;;;;6.53;4.25;;;;;;;;;;4962308;28;20037;-79
2023/10/25 08:58:36;;;;;;;10.23;4.93;;;;;;;;;;4960555;28;20027;-78
2023/10/25 09:01:02;;;;;;;9.40;4.72;;;;;;;;;;4959819;28;20027;-80
2023/10/25 09:03:31;;;;;;;9.15;4.70;;;;;;;;;;4958878;29;20042;-77
2023/10/25 09:06:00;;;;;;;5.82;4.45;;;;;;;;;;4958112;28;20019;-77
2023/10/25 09:08:26;;;;;;;6.80;4.53;;;;;;;;;;4958810;29;20027;-78
2023/10/25 09:11:09;;;;;;;8.20;4.13;;;;;;;;;;4959583;28;20097;-79
2023/10/25 09:13:36;;;;;;;6.07;4.40;;;;;;;;;;4961075;28;20086;-77
2023/10/25 09:16:06;;;;;;;6.57;3.80;;;;;;;;;;4962143;28;20047;-78
2023/10/25 09:18:32;;;;;;;5.47;3.90;;;;;;;;;;4962185;29;20515;-78
2023/10/25 09:20:58;;;;;;;4.10;3.70;;;;;;;;;;4963148;28;20051;-77
2023/10/25 09:23:23;;;;;;;4.70;3.60;;;;;;;;;;4963767;29;20023;-78
2023/10/25 09:25:49;;;;;;;4.40;3.50;;;;;;;;;;4959879;28;20027;-75
2023/10/25 09:28:22;;;;;;;6.25;3.22;;;;;;;;;;4959531;29;20092;-76
2023/10/25 09:30:48;;;;;;;3.53;3.05;;;;;;;;;;4957899;29;20023;-75
2023/10/25 09:33:13;;;;;;;3.93;2.80;;;;;;;;;;4956912;28;20042;-75
2023/10/25 09:35:38;;;;;;;3.67;2.10;;;;;;;;;;4958399;28;20352;-75
2023/10/25 09:38:04;;;;;;;2.85;1.88;;;;;;;;;;4958995;28;20823;-75
2023/10/25 09:40:29;;;;;;;4.13;2.10;;;;;;;;;;4957084;28;20118;-75
2023/10/25 09:42:59;;;;;;;3.22;2.28;;;;;;;;;;4958750;28;20024;-75
2023/10/25 09:45:30;;;;;;;5.30;2.40;;;;;;;;;;4959373;28;20058;-80
2023/10/25 09:48:01;;;;;;;3.00;2.10;;;;;;;;;;4957581;29;20027;-77
2023/10/25 09:50:36;;;;;;;2.60;2.08;;;;;;;;;;4958277;29;20114;-77
2023/10/25 09:53:11;;;;;;;3.72;2.30;;;;;;;;;;4957942;29;20039;-77
2023/10/25 09:55:40;;;;;;;4.68;2.00;;;;;;;;;;4961548;28;20414;-78
2023/10/25 09:58:10;;;;;;;3.28;1.98;;;;;;;;;;4961122;29;20046;-77
2023/10/25 10:00:38;;;;;;;2.63;1.90;;;;;;;;;;4959758;29;20035;-77
2023/10/25 10:03:15;;;;;;;2.22;1.70;;;;;;;;;;4958673;29;20414;-78
2023/10/25 10:05:48;;;;;;;2.63;1.90;;;;;;;;;;4959053;28;20027;-77
2023/10/25 10:08:21;;;;;;;2.17;1.50;;;;;;;;;;4961174;29;20031;-77
2023/10/25 10:10:52;;;;;;;3.10;1.92;;;;;;;;;;4960693;28;20083;-81
2023/10/25 10:13:18;;;;;;;2.75;1.80;;;;;;;;;;4958871;29;20542;-79
2023/10/25 10:15:58;;;;;;;2.38;1.60;;;;;;;;;;4961344;28;20027;-80
2023/10/25 10:18:27;;;;;;;1.65;1.55;;;;;;;;;;4963858;29;20034;-76
2023/10/25 10:21:06;;;;;;;2.45;1.40;;;;;;;;;;4962449;29;20030;-77
2023/10/25 10:23:38;;;;;;;2.90;1.55;;;;;;;;;;4962222;29;20066;-80
2023/10/25 10:26:04;;;;;;;1.55;1.40;;;;;;;;;;4963740;28;20030;-79
2023/10/25 10:28:41;;;;;;;2.25;1.60;;;;;;;;;;4965632;29;20030;-79
2023/10/25 10:31:07;;;;;;;2.63;1.60;;;;;;;;;;4960493;29;20027;-79
2023/10/25 10:33:46;;;;;;;4.07;1.92;;;;;;;;;;4959797;28;20035;-78
2023/10/25 10:36:21;;;;;;;2.40;1.83;;;;;;;;;;4962353;28;20046;-78
2023/10/25 10:39:12;;;;;;;4.22;2.05;;;;;;;;;;4962342;29;20031;-78
2023/10/25 10:41:39;;;;;;;3.03;2.03;;;;;;;;;;4959185;28;20113;-78
2023/10/25 10:44:04;;;;;;;2.38;1.75;;;;;;;;;;4958735;28;20027;-77
2023/10/25 10:46:30;;;;;;;2.03;1.60;;;;;;;;;;4960877;28;20034;-79
2023/10/25 10:49:00;;;;;;;6.05;1.80;;;;;;;;;;4960970;29;20395;-76
2023/10/25 10:51:27;;;;;;;1.90;1.70;;;;;;;;;;4959940;28;20509;-78
2023/10/25 10:53:52;;;;;;;2.55;1.52;;;;;;;;;;4959481;29;20039;-79
2023/10/25 10:56:17;;;;;;;3.20;1.70;;;;;;;;;;4959828;28;20035;-77
2023/10/25 10:58:43;;;;;;;3.97;1.60;;;;;;;;;;4962784;29;20034;-78
2023/10/25 11:01:09;;;;;;;4.32;1.30;;;;;;;;;;4961375;28;20538;-77
2023/10/25 11:03:36;;;;;;;2.17;1.50;;;;;;;;;;4963091;28;20590;-78
2023/10/25 11:06:03;;;;;;;1.55;1.27;;;;;;;;;;4962034;28;20030;-78
2023/10/25 11:08:29;;;;;;;2.15;1.23;;;;;;;;;;4962682;28;20027;-77
2023/10/25 11:10:55;;;;;;;1.58;1.30;;;;;;;;;;4961233;29;20114;-77
2023/10/25 11:13:20;;;;;;;2.22;1.08;;;;;;;;;;4962212;29;20402;-77
2023/10/25 11:15:45;;;;;;;1.85;1.00;;;;;;;;;;4963269;28;20023;-77
2023/10/25 11:18:11;;;;;;;1.67;1.30;;;;;;;;;;4959611;29;20031;-77
2023/10/25 11:20:38;;;;;;;2.10;0.93;;;;;;;;;;4960968;29;20352;-76
2023/10/25 11:23:04;;;;;;;1.55;1.05;;;;;;;;;;4961757;29;20521;-77
2023/10/25 11:25:30;;;;;;;2.28;1.00;;;;;;;;;;4959800;28;20035;-77
2023/10/25 11:27:56;;;;;;;2.35;1.30;;;;;;;;;;4961738;29;20050;-77
2023/10/25 11:30:21;;;;;;;1.90;1.23;;;;;;;;;;4961611;29;20019;-78
2023/10/25 11:32:49;;;;;;;1.67;1.10;;;;;;;;;;4961566;28;20042;-77
2023/10/25 11:35:23;;;;;;;1.50;1.10;;;;;;;;;;4960318;28;20042;-77
2023/10/25 11:37:51;;;;;;;1.77;1.05;;;;;;;;;;4960060;29;20027;-78
2023/10/25 11:40:16;;;;;;;1.92;1.15;;;;;;;;;;4959856;28;20031;-78
2023/10/25 11:42:42;;;;;;;2.97;1.17;;;;;;;;;;4960983;29;20027;-77
2023/10/25 11:45:08;;;;;;;2.22;1.17;;;;;;;;;;4959933;28;20336;-77
2023/10/25 11:47:34;;;;;;;1.33;1.00;;;;;;;;;;4960619;29;20031;-77
2023/10/25 11:50:00;;;;;;;2.20;1.13;;;;;;;;;;4958839;29;20020;-77
2023/10/25 11:52:27;;;;;;;1.42;1.00;;;;;;;;;;4960323;29;20514;-78
2023/10/25 11:54:56;;;;;;;1.10;0.90;;;;;;;;;;4959799;28;20031;-77
2023/10/25 11:57:27;;;;;;;1.92;1.00;;;;;;;;;;4960256;29;20375;-77
2023/10/25 11:59:52;;;;;;;1.83;1.00;;;;;;;;;;4959402;29;20050;-77
2023/10/25 12:02:23;;;;;;;3.38;1.33;;;;;;;;;;4960921;29;20510;-77
2023/10/25 12:04:49;;;;;;;1.30;1.10;;;;;;;;;;4959382;28;20030;-76
2023/10/25 12:07:14;;;;;;;1.73;0.90;;;;;;;;;;4959097;29;20031;-77
2023/10/25 12:09:42;;;;;;;1.20;0.90;;;;;;;;;;4959534;28;20055;-77
2023/10/25 12:12:08;;;;;;;1.15;0.93;;;;;;;;;;4961773;28;20102;-77
2023/10/25 12:14:33;;;;;;;2.22;1.00;;;;;;;;;;4961747;28;20061;-77
2023/10/25 12:16:59;;;;;;;1.42;0.75;;;;;;;;;;4960608;29;20078;-77
2023/10/25 12:19:24;;;;;;;0.70;0.70;;;;;;;;;;4960212;29;20046;-77
2023/10/25 12:21:55;;;;;;;1.35;0.90;;;;;;;;;;4959768;29;20034;-77
2023/10/25 12:24:21;;;;;;;0.98;0.80;;;;;;;;;;4959792;29;20031;-76
2023/10/25 12:26:47;;;;;;;0.80;0.75;;;;;;;;;;4961312;28;20027;-77
2023/10/25 12:29:12;;;;;;;1.55;0.77;;;;;;;;;;4960662;29;20026;-78
2023/10/25 12:31:37;;;;;;;1.25;0.80;;;;;;;;;;4962313;29;20430;-77
2023/10/25 12:34:03;;;;;;;1.50;0.90;;;;;;;;;;4959686;28;20019;-77
2023/10/25 12:36:28;;;;;;;3.30;0.90;;;;;;;;;;4961065;28;20019;-77
2023/10/25 12:38:53;;;;;;;2.28;0.98;;;;;;;;;;4960602;29;20027;-78
2023/10/25 12:41:18;;;;;;;1.65;0.93;;;;;;;;;;4960578;29;20023;-78
2023/10/25 12:43:44;;;;;;;1.10;0.80;;;;;;;;;;4961071;29;20438;-78
2023/10/25 12:46:09;;;;;;;0.88;0.82;;;;;;;;;;4961883;28;20031;-78
2023/10/25 12:48:36;;;;;;;1.90;0.80;;;;;;;;;;4962307;29;20086;-77
2023/10/25 12:51:01;;;;;;;1.08;0.70;;;;;;;;;;4960604;29;20033;-78
2023/10/25 12:53:26;;;;;;;0.50;0.50;;;;;;;;;;4960026;29;20110;-79
2023/10/25 12:55:53;;;;;;;5.47;0.90;;;;;;;;;;4959805;28;20052;-77
2023/10/25 12:58:18;;;;;;;1.50;0.73;;;;;;;;;;4962568;29;20451;-78
2023/10/25 13:00:43;;;;;;;2.55;0.70;;;;;;;;;;4963134;29;20043;-78
2023/10/25 13:03:08;;;;;;;2.38;0.60;;;;;;;;;;4963236;29;20058;-78
2023/10/25 13:05:34;;;;;;;2.73;0.70;;;;;;;;;;4960996;28;20462;-82
2023/10/25 13:07:59;;;;;;;1.25;0.75;;;;;;;;;;4959670;29;20249;-79
2023/10/25 13:10:25;;;;;;;1.17;0.70;;;;;;;;;;4961043;29;20090;-78
2023/10/25 13:12:50;;;;;;;0.75;0.68;;;;;;;;;;4962041;29;20114;-79
2023/10/25 13:15:15;;;;;;;3.08;0.82;;;;;;;;;;4958485;28;20023;-77
2023/10/25 13:17:41;;;;;;;1.35;0.70;;;;;;;;;;4958604;29;20027;-79
2023/10/25 13:20:09;;;;;;;1.38;0.90;;;;;;;;;;4959049;28;20471;-77
2023/10/25 13:22:34;;;;;;;2.28;0.80;;;;;;;;;;4958075;29;20027;-78
2023/10/25 13:24:59;;;;;;;2.92;0.85;;;;;;;;;;4958580;28;20070;-78
2023/10/25 13:27:25;;;;;;;0.85;0.65;;;;;;;;;;4959325;29;20469;-78
2023/10/25 13:29:51;;;;;;;1.90;0.70;;;;;;;;;;4961743;28;20042;-79
2023/10/25 13:32:17;;;;;;;2.13;0.80;;;;;;;;;;4962441;28;20038;-79
2023/10/25 13:34:44;;;;;;;1.00;0.73;;;;;;;;;;4962107;28;20482;-78
2023/10/25 13:37:09;;;;;;;1.13;0.70;;;;;;;;;;4960534;29;20531;-77
2023/10/25 13:39:34;;;;;;;1.83;0.82;;;;;;;;;;4960492;29;20120;-78
2023/10/25 13:42:00;;;;;;;2.58;0.88;;;;;;;;;;4960969;29;20142;-77
2023/10/25 13:44:25;;;;;;;1.55;0.88;;;;;;;;;;4960232;29;20043;-77
2023/10/25 13:46:50;;;;;;;2.15;0.80;;;;;;;;;;4961910;28;20027;-79
2023/10/25 13:49:16;;;;;;;1.88;0.80;;;;;;;;;;4960874;29;20042;-78
2023/10/25 13:51:41;;;;;;;1.33;0.83;;;;;;;;;;4961858;29;20027;-79
2023/10/25 13:54:06;;;;;;;1.00;0.80;;;;;;;;;;4962644;28;20784;-78
2023/10/25 13:56:32;;;;;;;1.42;0.80;;;;;;;;;;4958922;28;20039;-80
2023/10/25 13:58:57;;;;;;;1.77;0.70;;;;;;;;;;4957970;28;20034;-77
2023/10/25 14:01:22;;;;;;;2.85;0.90;;;;;;;;;;4958756;29;20027;-79
2023/10/25 14:03:48;;;;;;;1.00;0.60;;;;;;;;;;4960270;29;20070;-79
2023/10/25 14:06:15;;;;;;;1.35;0.70;;;;;;;;;;4961814;28;20110;-78
2023/10/25 14:08:43;;;;;;;1.20;0.70;;;;;;;;;;4965498;28;20508;-79
2023/10/25 14:11:08;;;;;;;1.65;0.82;;;;;;;;;;4964856;29;20031;-78
2023/10/25 14:13:34;;;;;;;1.65;0.90;;;;;;;;;;4964963;29;20063;-79
2023/10/25 14:15:59;;;;;;;1.77;0.80;;;;;;;;;;4965667;28;20031;-78
2023/10/25 14:18:24;;;;;;;1.35;0.70;;;;;;;;;;4966263;29;20114;-79
2023/10/25 14:20:49;;;;;;;1.15;0.70;;;;;;;;;;4966280;28;20027;-79
2023/10/25 14:23:15;;;;;;;1.25;0.70;;;;;;;;;;4965148;28;20023;-79
2023/10/25 14:25:41;;;;;;;2.38;0.70;;;;;;;;;;4965338;28;20372;-79
2023/10/25 14:28:09;;;;;;;0.90;0.63;;;;;;;;;;4966980;29;20053;-78
2023/10/25 14:30:42;;;;;;;1.42;0.82;;;;;;;;;;4966444;28;20114;-79
2023/10/25 14:33:08;;;;;;;1.63;0.90;;;;;;;;;;4967719;28;20391;-79